AEB weather

Baise Youjiang Airport
Baise, Guangxi Autonomous Region, China

Public forecast

Using degrees Celsius for public forecast. Weather courtesy of forecast.io.

Closest aviation weather report (METAR) to Baise Youjiang Airport

Closest report is Nanning Wuxu Airport, 94.5 nm (175.1 km) SE. Retrieved 2019/10/15 20:00 UTC (59 minutes ago):

ZGNN 152000Z 01001MPS 9999 BKN036 24/19 Q1019 NOSIG

Closest aviation forecast (TAF) to Baise Youjiang Airport

Closest forecast is Nanning Wuxu Airport, 94.5 nm (175.1 km) SE. Retrieved 2019/10/15 18:00 UTC (3 hours ago):

TAF ZGNN 151505Z 1518/1618 04003MPS 7000 SCT030 TX31/1607Z TN21/1522Z